createdAt,value
2017-08-29T00:02:26.469Z,18.30
2017-08-29T00:04:56.044Z,18.30
2017-08-29T00:07:25.997Z,18.30
2017-08-29T00:09:57.712Z,18.30
2017-08-29T00:12:26.875Z,18.20
2017-08-29T00:14:57.444Z,18.20
2017-08-29T00:17:26.902Z,18.30
2017-08-29T00:19:56.765Z,18.10
2017-08-29T00:22:26.639Z,18.20
2017-08-29T00:24:57.314Z,18.20
2017-08-29T00:27:26.669Z,18.10
2017-08-29T00:29:56.242Z,18.20
2017-08-29T00:32:26.944Z,18.20
2017-08-29T00:34:57.599Z,18.10
2017-08-29T00:37:27.378Z,18.10
2017-08-29T00:39:57.333Z,18.00
2017-08-29T00:42:27.323Z,18.10
2017-08-29T00:44:57.086Z,18.00
2017-08-29T00:47:26.728Z,17.90
2017-08-29T00:49:55.961Z,17.90
2017-08-29T00:52:25.836Z,17.80
2017-08-29T00:54:55.494Z,17.80
2017-08-29T00:57:25.633Z,17.70
2017-08-29T00:59:55.917Z,17.70
2017-08-29T01:02:25.309Z,17.80
2017-08-29T01:04:54.649Z,17.80
2017-08-29T01:07:25.073Z,17.90
2017-08-29T01:09:55.089Z,17.80
2017-08-29T01:12:28.332Z,17.70
2017-08-29T01:14:58.079Z,17.70
2017-08-29T01:17:27.699Z,17.70
2017-08-29T01:19:57.020Z,17.60
2017-08-29T01:22:26.564Z,17.60
2017-08-29T01:24:57.654Z,17.70
2017-08-29T01:27:27.532Z,17.50
2017-08-29T01:29:58.048Z,17.50
2017-08-29T01:32:31.003Z,17.60
2017-08-29T01:35:01.013Z,17.60
2017-08-29T01:37:31.968Z,17.50
2017-08-29T01:40:12.039Z,17.50
2017-08-29T01:42:42.212Z,17.50
2017-08-29T01:45:12.012Z,17.50
2017-08-29T01:47:42.098Z,17.50
2017-08-29T01:50:13.063Z,17.40
2017-08-29T01:52:42.352Z,17.50
2017-08-29T01:55:12.134Z,17.40
2017-08-29T01:57:42.449Z,17.40
2017-08-29T02:00:11.745Z,17.40
2017-08-29T02:02:44.982Z,17.40
2017-08-29T02:05:14.935Z,17.30
2017-08-29T02:07:45.037Z,17.30
2017-08-29T02:10:15.127Z,17.40
2017-08-29T02:12:45.856Z,17.30
2017-08-29T02:15:15.676Z,17.30
2017-08-29T02:17:45.393Z,17.30
2017-08-29T02:20:16.437Z,16.10
2017-08-29T02:22:50.481Z,17.30
2017-08-29T02:25:20.521Z,17.20
2017-08-29T02:27:49.650Z,17.20
2017-08-29T02:30:19.647Z,17.10
2017-08-29T02:32:49.732Z,17.20
2017-08-29T02:35:20.856Z,17.20
2017-08-29T02:37:52.438Z,17.10
2017-08-29T02:40:23.200Z,17.00
2017-08-29T02:42:53.549Z,17.00
2017-08-29T02:45:28.136Z,17.00
2017-08-29T02:47:58.311Z,17.00
2017-08-29T02:50:29.660Z,17.00
2017-08-29T02:53:01.477Z,17.00
2017-08-29T02:55:39.606Z,17.00
2017-08-29T02:58:11.376Z,16.90
2017-08-29T03:00:40.872Z,16.90
2017-08-29T03:03:10.878Z,16.90
2017-08-29T03:05:41.548Z,16.90
2017-08-29T03:08:12.310Z,17.00
2017-08-29T03:10:42.683Z,15.60
2017-08-29T03:13:12.783Z,16.80
2017-08-29T03:15:45.892Z,16.80
2017-08-29T03:18:18.290Z,16.80
2017-08-29T03:20:51.478Z,16.80
2017-08-29T03:23:23.971Z,16.80
2017-08-29T03:25:58.884Z,16.80
2017-08-29T03:28:28.583Z,16.80
2017-08-29T03:30:59.191Z,16.90
2017-08-29T03:33:32.372Z,16.90
2017-08-29T03:36:02.315Z,16.80
2017-08-29T03:38:32.438Z,16.80
2017-08-29T03:41:01.697Z,16.00
2017-08-29T03:43:31.340Z,16.70
2017-08-29T03:46:00.962Z,16.80
2017-08-29T03:48:30.775Z,16.70
2017-08-29T03:51:01.592Z,16.60
2017-08-29T03:53:32.431Z,16.70
2017-08-29T03:56:02.173Z,16.60
2017-08-29T03:58:31.823Z,16.50
2017-08-29T04:01:01.342Z,16.60
2017-08-29T04:03:30.551Z,16.50
2017-08-29T04:06:00.004Z,16.60
2017-08-29T04:08:29.777Z,16.60
2017-08-29T04:10:59.078Z,16.60
2017-08-29T04:13:28.306Z,16.50
2017-08-29T04:15:57.639Z,16.50
2017-08-29T04:18:26.929Z,16.50
2017-08-29T04:20:56.094Z,16.50
2017-08-29T04:23:25.165Z,16.40
2017-08-29T04:25:54.388Z,16.40
2017-08-29T04:28:23.557Z,16.50
2017-08-29T04:30:52.747Z,15.30
2017-08-29T04:33:22.039Z,15.90
2017-08-29T04:35:51.175Z,16.50
2017-08-29T04:38:20.521Z,16.60
2017-08-29T04:40:49.850Z,16.60
2017-08-29T04:43:19.310Z,16.60
2017-08-29T04:45:49.135Z,16.50
2017-08-29T04:48:18.436Z,16.50
2017-08-29T04:50:47.568Z,16.50
2017-08-29T04:53:16.894Z,16.60
2017-08-29T04:55:46.008Z,16.60
2017-08-29T04:58:15.101Z,16.60
2017-08-29T05:00:44.340Z,16.60
2017-08-29T05:03:13.491Z,16.60
2017-08-29T05:15:40.437Z,16.60
2017-08-29T05:18:17.859Z,16.70
2017-08-29T05:26:16.276Z,17.00
2017-08-29T05:28:53.050Z,17.10
2017-08-29T05:31:24.332Z,17.20
2017-08-29T05:33:53.553Z,17.30
2017-08-29T05:36:22.587Z,17.30
2017-08-29T05:38:51.976Z,17.40
2017-08-29T05:41:21.143Z,17.50
2017-08-29T05:43:50.273Z,17.60
2017-08-29T05:46:19.226Z,17.50
2017-08-29T05:48:48.207Z,16.50
2017-08-29T05:51:17.186Z,17.80
2017-08-29T05:53:46.165Z,17.90
2017-08-29T05:56:15.225Z,18.00
2017-08-29T05:58:46.538Z,18.10
2017-08-29T06:01:16.125Z,18.30
2017-08-29T06:03:46.665Z,17.60
2017-08-29T06:06:17.022Z,18.50
2017-08-29T06:08:47.137Z,18.60
2017-08-29T06:11:16.841Z,18.70
2017-08-29T06:13:50.557Z,18.80
2017-08-29T06:16:22.316Z,19.00
2017-08-29T06:18:52.526Z,19.10
2017-08-29T06:21:24.303Z,19.20
2017-08-29T06:23:57.567Z,19.40
2017-08-29T06:38:38.536Z,20.30
2017-08-29T06:41:40.002Z,20.30
2017-08-29T06:57:04.677Z,21.30
2017-08-29T07:00:08.998Z,21.50
2017-08-29T07:02:39.023Z,21.80
2017-08-29T07:05:07.988Z,22.00
2017-08-29T07:07:46.693Z,22.20
2017-08-29T07:10:16.996Z,22.50
2017-08-29T07:12:48.586Z,22.70
2017-08-29T07:15:18.520Z,23.00
2017-08-29T07:17:48.190Z,23.20
2017-08-29T07:20:18.228Z,23.50
2017-08-29T07:22:47.209Z,23.70
2017-08-29T07:25:16.295Z,23.90
2017-08-29T07:27:45.305Z,24.00
2017-08-29T07:30:14.289Z,24.20
2017-08-29T07:32:44.102Z,24.40
2017-08-29T07:35:13.067Z,24.50
2017-08-29T07:37:42.076Z,24.70
2017-08-29T07:40:11.989Z,23.90
2017-08-29T07:42:40.995Z,25.20
2017-08-29T07:45:09.955Z,25.40
2017-08-29T07:47:38.933Z,25.60
2017-08-29T07:50:08.634Z,25.80
2017-08-29T07:52:38.287Z,26.10
2017-08-29T07:55:07.390Z,26.40
2017-08-29T07:57:36.382Z,26.60
2017-08-29T08:00:05.368Z,26.90
2017-08-29T08:02:34.339Z,27.10
2017-08-29T08:05:03.313Z,27.30
2017-08-29T08:07:32.317Z,27.50
2017-08-29T08:10:01.306Z,27.50
2017-08-29T08:12:30.263Z,27.80
2017-08-29T08:14:59.230Z,28.00
2017-08-29T08:17:28.236Z,28.20
2017-08-29T08:19:58.319Z,28.50
2017-08-29T08:22:27.277Z,28.90
2017-08-29T08:24:56.280Z,29.20
2017-08-29T08:27:25.335Z,29.30
2017-08-29T08:29:54.354Z,29.50
2017-08-29T08:32:23.369Z,29.80
2017-08-29T08:34:52.331Z,30.10
2017-08-29T08:37:21.291Z,30.40
2017-08-29T08:39:50.275Z,30.50
2017-08-29T08:42:19.275Z,30.90
2017-08-29T08:44:48.274Z,31.00
2017-08-29T08:47:17.235Z,31.40
2017-08-29T08:49:46.198Z,31.10
2017-08-29T08:52:15.195Z,32.30
2017-08-29T08:54:44.163Z,32.80
2017-08-29T08:57:13.132Z,33.20
2017-08-29T08:59:42.136Z,33.50
2017-08-29T09:02:11.104Z,33.60
2017-08-29T09:04:40.067Z,34.00
2017-08-29T09:07:09.080Z,34.10
2017-08-29T09:09:38.053Z,33.50
2017-08-29T09:12:07.006Z,34.80
2017-08-29T09:14:36.007Z,34.80
2017-08-29T09:17:04.972Z,35.00
2017-08-29T09:19:33.967Z,35.10
2017-08-29T09:22:02.934Z,35.20
2017-08-29T09:24:31.900Z,34.50
2017-08-29T09:27:00.898Z,35.10
2017-08-29T09:29:29.890Z,35.40
2017-08-29T09:31:58.836Z,35.60
2017-08-29T09:34:27.800Z,35.90
2017-08-29T09:36:56.782Z,35.40
2017-08-29T09:39:25.774Z,35.20
2017-08-29T09:41:54.759Z,35.90
2017-08-29T09:44:23.726Z,36.10
2017-08-29T09:46:52.684Z,36.10
2017-08-29T09:49:21.651Z,36.10
2017-08-29T09:51:50.671Z,36.50
2017-08-29T09:54:19.636Z,36.40
2017-08-29T09:56:48.623Z,36.30
2017-08-29T09:59:17.625Z,35.70
2017-08-29T10:01:46.622Z,37.10
2017-08-29T10:04:15.603Z,37.70
2017-08-29T10:06:44.574Z,38.10
2017-08-29T10:09:13.552Z,38.10
2017-08-29T10:11:42.519Z,38.20
2017-08-29T10:14:11.498Z,38.30
2017-08-29T10:16:40.518Z,38.50
2017-08-29T10:19:09.494Z,39.10
2017-08-29T10:21:38.453Z,39.50
2017-08-29T10:24:07.440Z,38.90
2017-08-29T10:26:36.435Z,40.10
2017-08-29T10:29:05.447Z,39.80
2017-08-29T10:31:34.403Z,40.80
2017-08-29T10:34:03.393Z,40.70
2017-08-29T10:36:32.338Z,40.70
2017-08-29T10:39:01.295Z,40.80
2017-08-29T10:41:30.271Z,40.40
2017-08-29T10:43:59.248Z,41.60
2017-08-29T10:46:28.195Z,42.20
2017-08-29T10:48:57.183Z,42.70
2017-08-29T10:51:26.154Z,42.70
2017-08-29T10:53:55.135Z,42.70
2017-08-29T10:56:24.088Z,42.20
2017-08-29T10:58:53.036Z,42.30
2017-08-29T11:01:22.039Z,41.70
2017-08-29T11:03:51.013Z,42.70
2017-08-29T11:06:19.984Z,43.50
2017-08-29T11:08:48.941Z,43.60
2017-08-29T11:11:17.893Z,43.50
2017-08-29T11:13:46.868Z,43.00
2017-08-29T11:16:15.815Z,44.00
2017-08-29T11:18:44.788Z,44.10
2017-08-29T11:21:13.761Z,44.30
2017-08-29T11:23:42.726Z,43.30
2017-08-29T11:26:11.681Z,43.70
2017-08-29T11:28:40.648Z,43.90
2017-08-29T11:31:09.640Z,44.30
2017-08-29T11:33:38.607Z,44.50
2017-08-29T11:36:07.573Z,44.40
2017-08-29T11:38:36.635Z,44.40
2017-08-29T11:41:05.732Z,44.50
2017-08-29T11:43:34.712Z,44.10
2017-08-29T11:46:03.681Z,43.80
2017-08-29T11:48:32.661Z,43.90
2017-08-29T11:51:01.602Z,43.80
2017-08-29T11:53:30.565Z,44.20
2017-08-29T11:55:59.553Z,44.40
2017-08-29T11:58:28.526Z,45.00
2017-08-29T12:00:57.485Z,45.30
2017-08-29T12:03:26.448Z,44.90
2017-08-29T12:05:55.420Z,44.90
2017-08-29T12:08:24.383Z,44.90
2017-08-29T12:10:53.331Z,45.00
2017-08-29T12:13:22.291Z,45.20
2017-08-29T12:15:51.264Z,44.90
2017-08-29T12:18:20.207Z,45.90
2017-08-29T12:20:49.172Z,46.60
2017-08-29T12:23:18.151Z,47.10
2017-08-29T12:25:47.131Z,47.50
2017-08-29T12:28:16.122Z,47.90
2017-08-29T12:30:45.062Z,48.10
2017-08-29T12:33:14.041Z,47.20
2017-08-29T12:35:42.999Z,47.80
2017-08-29T12:38:16.149Z,47.20
2017-08-29T12:40:45.104Z,47.70
2017-08-29T12:43:14.076Z,48.30
2017-08-29T12:45:43.027Z,48.70
2017-08-29T12:48:11.982Z,48.70
2017-08-29T12:50:40.959Z,48.10
2017-08-29T12:53:09.939Z,49.00
2017-08-29T12:55:38.893Z,48.90
2017-08-29T12:58:07.901Z,48.70
2017-08-29T13:00:36.862Z,48.70
2017-08-29T13:03:05.811Z,48.30
2017-08-29T13:05:34.816Z,48.10
2017-08-29T13:08:03.796Z,48.70
2017-08-29T13:10:32.742Z,49.30
2017-08-29T13:13:01.736Z,48.80
2017-08-29T13:15:30.713Z,48.40
2017-08-29T13:17:59.662Z,49.00
2017-08-29T13:20:28.653Z,49.20
2017-08-29T13:22:57.610Z,49.10
2017-08-29T13:25:28.301Z,49.40
2017-08-29T13:27:57.722Z,49.50
2017-08-29T13:30:26.695Z,49.90
2017-08-29T13:32:55.700Z,49.30
2017-08-29T13:35:24.719Z,49.90
2017-08-29T13:37:53.709Z,50.00
2017-08-29T13:40:22.692Z,50.00
2017-08-29T13:42:51.647Z,50.00
2017-08-29T13:45:20.595Z,49.90
2017-08-29T13:47:49.547Z,50.30
2017-08-29T13:50:18.575Z,50.10
2017-08-29T13:52:47.625Z,50.50
2017-08-29T13:55:16.571Z,49.40
2017-08-29T13:57:45.523Z,48.30
2017-08-29T14:00:14.528Z,47.50
2017-08-29T14:02:43.513Z,48.70
2017-08-29T14:05:12.488Z,49.00
2017-08-29T14:07:41.456Z,48.40
2017-08-29T14:10:10.395Z,49.40
2017-08-29T14:12:39.364Z,48.80
2017-08-29T14:15:08.320Z,49.50
2017-08-29T14:17:37.361Z,49.40
2017-08-29T14:20:06.333Z,49.40
2017-08-29T14:22:35.276Z,49.50
2017-08-29T14:25:04.231Z,49.50
2017-08-29T14:27:33.189Z,48.90
2017-08-29T14:30:02.160Z,49.50
2017-08-29T14:32:31.111Z,49.60
2017-08-29T14:35:00.148Z,48.30
2017-08-29T14:37:29.145Z,49.10
2017-08-29T14:39:58.091Z,49.40
2017-08-29T14:42:27.100Z,48.70
2017-08-29T14:44:56.063Z,49.00
2017-08-29T14:47:42.659Z,48.80
2017-08-29T14:50:11.622Z,48.50
2017-08-29T14:52:40.568Z,48.40
2017-08-29T14:55:09.539Z,48.20
2017-08-29T14:57:38.488Z,48.20
2017-08-29T15:00:07.463Z,47.60
2017-08-29T15:02:36.433Z,47.10
2017-08-29T15:05:05.412Z,46.00
2017-08-29T15:07:34.368Z,46.50
2017-08-29T15:10:03.332Z,46.30
2017-08-29T15:12:32.382Z,46.10
2017-08-29T15:15:01.355Z,45.60
2017-08-29T15:17:30.300Z,45.00
2017-08-29T15:19:59.288Z,44.00
2017-08-29T15:22:28.263Z,43.20
2017-08-29T15:24:57.272Z,41.90
2017-08-29T15:27:26.220Z,42.10
2017-08-29T15:29:55.166Z,41.60
2017-08-29T15:32:24.127Z,41.40
2017-08-29T15:34:53.088Z,40.10
2017-08-29T15:37:22.087Z,41.70
2017-08-29T15:39:51.059Z,41.80
2017-08-29T15:42:20.027Z,41.70
2017-08-29T15:44:48.973Z,41.70
2017-08-29T15:47:17.923Z,41.60
2017-08-29T15:49:46.906Z,41.10
2017-08-29T15:52:15.971Z,40.40
2017-08-29T15:54:44.994Z,38.40
2017-08-29T15:57:13.967Z,39.10
2017-08-29T15:59:42.921Z,38.80
2017-08-29T16:02:12.067Z,38.90
2017-08-29T16:04:41.022Z,39.20
2017-08-29T16:07:09.973Z,39.70
2017-08-29T16:09:39.040Z,40.00
2017-08-29T16:12:08.004Z,39.50
2017-08-29T16:14:37.052Z,40.40
2017-08-29T16:17:06.017Z,40.40
2017-08-29T16:19:35.194Z,40.40
2017-08-29T16:22:04.196Z,40.50
2017-08-29T16:24:33.184Z,40.30
2017-08-29T16:27:02.170Z,39.30
2017-08-29T16:29:31.127Z,38.80
2017-08-29T16:32:00.085Z,39.50
2017-08-29T16:34:29.052Z,39.60
2017-08-29T16:36:58.008Z,38.70
2017-08-29T16:39:27.003Z,39.60
2017-08-29T16:41:55.953Z,39.30
2017-08-29T16:44:24.911Z,38.70
2017-08-29T16:46:53.873Z,38.30
2017-08-29T16:49:22.825Z,37.90
2017-08-29T16:51:51.809Z,37.40
2017-08-29T16:54:20.764Z,37.10
2017-08-29T16:56:49.758Z,36.60
2017-08-29T16:59:18.694Z,36.30
2017-08-29T17:01:47.642Z,36.00
2017-08-29T17:04:16.623Z,35.70
2017-08-29T17:06:45.624Z,35.30
2017-08-29T17:09:14.558Z,34.90
2017-08-29T17:11:43.510Z,34.40
2017-08-29T17:14:12.507Z,33.70
2017-08-29T17:16:41.481Z,33.10
2017-08-29T17:19:10.434Z,32.70
2017-08-29T17:21:39.378Z,32.30
2017-08-29T17:24:08.360Z,32.00
2017-08-29T17:26:37.311Z,31.70
2017-08-29T17:29:06.300Z,31.40
2017-08-29T17:31:35.299Z,31.00
2017-08-29T17:34:04.256Z,30.20
2017-08-29T17:36:33.223Z,27.70
2017-08-29T17:39:02.226Z,28.80
2017-08-29T17:41:31.158Z,28.40
2017-08-29T17:44:00.139Z,28.00
2017-08-29T17:46:29.149Z,27.50
2017-08-29T17:48:58.136Z,27.20
2017-08-29T17:51:27.106Z,26.70
2017-08-29T17:53:56.083Z,25.60
2017-08-29T17:56:25.057Z,26.10
2017-08-29T17:58:54.000Z,25.90
2017-08-29T18:01:22.975Z,24.60
2017-08-29T18:03:51.929Z,25.30
2017-08-29T18:06:20.900Z,25.10
2017-08-29T18:08:49.847Z,24.90
2017-08-29T18:11:18.811Z,24.60
2017-08-29T18:13:47.767Z,24.50
2017-08-29T18:16:16.730Z,24.20
2017-08-29T18:18:45.708Z,24.00
2017-08-29T18:21:14.671Z,24.00
2017-08-29T18:23:43.630Z,23.80
2017-08-29T18:26:12.590Z,23.80
2017-08-29T18:28:41.572Z,23.70
2017-08-29T18:31:10.559Z,23.60
2017-08-29T18:33:39.516Z,23.40
2017-08-29T18:36:08.463Z,23.30
2017-08-29T18:38:37.435Z,23.20
2017-08-29T18:41:06.384Z,23.20
2017-08-29T18:43:35.351Z,23.10
2017-08-29T18:46:04.308Z,23.00
2017-08-29T18:48:33.263Z,22.90
2017-08-29T18:51:02.226Z,22.80
2017-08-29T18:53:31.211Z,21.70
2017-08-29T18:56:00.191Z,22.70
2017-08-29T18:58:29.184Z,22.70
2017-08-29T19:00:58.192Z,22.60
2017-08-29T19:03:27.204Z,22.50
2017-08-29T19:05:56.196Z,22.50
2017-08-29T19:08:27.113Z,22.40
2017-08-29T19:10:56.469Z,22.40
2017-08-29T19:13:25.429Z,22.40
2017-08-29T19:15:54.397Z,22.30
2017-08-29T19:18:24.814Z,21.20
2017-08-29T19:28:26.321Z,22.20
2017-08-29T19:30:55.321Z,22.10
2017-08-29T19:33:24.327Z,21.90
2017-08-29T19:36:22.196Z,21.80
2017-08-29T19:39:15.641Z,21.70
2017-08-29T19:41:50.288Z,20.60
2017-08-29T19:44:19.263Z,21.60
2017-08-29T19:46:48.218Z,21.60
2017-08-29T19:49:17.206Z,21.60
2017-08-29T19:51:55.319Z,21.50
2017-08-29T19:54:24.357Z,21.50
2017-08-29T19:56:53.424Z,21.40
2017-08-29T19:59:22.482Z,21.40
2017-08-29T20:01:53.817Z,21.40
2017-08-29T20:04:36.435Z,21.30
2017-08-29T20:07:13.325Z,21.20
2017-08-29T20:10:00.389Z,19.30
2017-08-29T20:12:29.402Z,21.10
2017-08-29T20:14:58.405Z,21.00
2017-08-29T20:17:27.417Z,21.00
2017-08-29T20:19:56.438Z,20.90
2017-08-29T20:22:25.719Z,20.90
2017-08-29T20:25:01.294Z,20.90
2017-08-29T20:27:34.291Z,20.80
2017-08-29T20:30:03.825Z,20.90
2017-08-29T20:32:33.732Z,20.80
2017-08-29T20:35:03.712Z,19.70
2017-08-29T20:37:32.828Z,20.70
2017-08-29T20:40:01.860Z,20.70
2017-08-29T20:42:30.833Z,20.60
2017-08-29T20:44:59.804Z,20.60
2017-08-29T20:47:28.892Z,20.50
2017-08-29T20:49:57.839Z,20.50
2017-08-29T20:52:26.819Z,20.50
2017-08-29T20:54:56.019Z,20.40
2017-08-29T20:57:24.971Z,20.40
2017-08-29T20:59:53.981Z,20.40
2017-08-29T21:02:22.943Z,19.20
2017-08-29T21:04:52.297Z,20.40
2017-08-29T21:07:21.243Z,20.20
2017-08-29T21:09:50.243Z,20.20
2017-08-29T21:12:19.191Z,20.20
2017-08-29T21:14:48.364Z,20.10
2017-08-29T21:17:17.337Z,20.10
2017-08-29T21:19:46.299Z,19.10
2017-08-29T21:22:15.275Z,20.10
2017-08-29T21:24:44.232Z,20.10
2017-08-29T21:27:13.214Z,20.00
2017-08-29T21:29:42.166Z,20.00
2017-08-29T21:32:11.247Z,19.90
2017-08-29T21:34:40.222Z,20.00
2017-08-29T21:37:09.174Z,19.90
2017-08-29T21:39:38.155Z,20.00
2017-08-29T21:42:07.131Z,19.90
2017-08-29T21:44:36.114Z,19.90
2017-08-29T21:47:05.093Z,19.90
2017-08-29T21:49:34.032Z,20.00
2017-08-29T21:52:02.992Z,18.80
2017-08-29T21:54:31.930Z,19.90
2017-08-29T21:57:00.913Z,19.90
2017-08-29T21:59:29.868Z,19.80
2017-08-29T22:01:58.815Z,19.80
2017-08-29T22:04:27.787Z,19.70
2017-08-29T22:06:56.743Z,19.70
2017-08-29T22:09:25.700Z,19.70
2017-08-29T22:11:54.658Z,19.60
2017-08-29T22:14:23.640Z,19.60
2017-08-29T22:16:52.610Z,19.60
2017-08-29T22:19:21.579Z,19.50
2017-08-29T22:21:50.524Z,19.50
2017-08-29T22:24:19.487Z,17.20
2017-08-29T22:26:48.440Z,19.50
2017-08-29T22:29:17.381Z,19.40
2017-08-29T22:31:46.343Z,19.50
2017-08-29T22:34:15.291Z,19.40
2017-08-29T22:36:44.254Z,19.50
2017-08-29T22:39:13.221Z,19.40
2017-08-29T22:41:42.176Z,19.50
2017-08-29T22:44:11.152Z,19.40
2017-08-29T22:46:40.129Z,18.30
2017-08-29T22:49:09.080Z,19.40
2017-08-29T22:51:38.036Z,19.10
2017-08-29T22:54:06.991Z,19.20
2017-08-29T22:56:35.950Z,19.10
2017-08-29T22:59:04.896Z,19.10
2017-08-29T23:01:33.883Z,19.20
2017-08-29T23:04:02.857Z,19.10
2017-08-29T23:06:31.865Z,19.10
2017-08-29T23:09:00.812Z,19.10
2017-08-29T23:11:29.763Z,19.10
2017-08-29T23:13:58.742Z,17.90
2017-08-29T23:16:27.686Z,19.10
2017-08-29T23:18:56.654Z,19.00
2017-08-29T23:21:25.988Z,19.00
2017-08-29T23:23:54.939Z,18.90
2017-08-29T23:26:23.896Z,18.90
2017-08-29T23:28:52.852Z,18.90
2017-08-29T23:31:21.806Z,18.90
2017-08-29T23:33:50.767Z,18.90
2017-08-29T23:36:19.731Z,18.90
2017-08-29T23:38:48.683Z,18.90
2017-08-29T23:41:17.639Z,18.80
2017-08-29T23:43:46.606Z,18.90
2017-08-29T23:46:15.902Z,18.90
2017-08-29T23:48:44.961Z,18.90
2017-08-29T23:51:13.918Z,18.90
2017-08-29T23:53:42.883Z,18.90
2017-08-29T23:56:11.831Z,18.80
2017-08-29T23:58:40.795Z,18.70
